Terminal Aerodrome Forecast
Issued by NWS

Home | Current Version | Previous Version | Text Only | Print | Product List | Glossary On
Versions: 1 2 3 4 5 6 7 8 9 10 11 12 13 14 15 16 17 18 19 20 21 22 23 24 25 26 27 28 29 30 31
000
FTUS43 KLSX 200500
TAFSUS
TAF
KSUS 200520Z 2006/2106 00000KT 3SM BR SKC
      TEMPO 2006/2010 1SM BR
     FM201100 00000KT P6SM VCTS BKN060CB
     FM201300 VRB03KT P6SM BKN060
     FM201600 22007KT P6SM SCT045
     FM210100 20004KT P6SM SCT100=

USA.gov is the U.S. government's official web portal to all federal, state and local government web resources and services.